createdAt,value
2022-12-11T00:00:27.277Z,93033.34
2022-12-11T00:03:16.414Z,93026.83
2022-12-11T00:05:44.905Z,93023.19
2022-12-11T00:08:12.911Z,93020.67
2022-12-11T00:10:39.692Z,93010.86
2022-12-11T00:13:06.573Z,93007.49
2022-12-11T00:15:33.369Z,93008.86
2022-12-11T00:18:00.156Z,93008.80
2022-12-11T00:20:27.375Z,93006.17
2022-12-11T00:22:54.093Z,93001.05
2022-12-11T00:25:20.780Z,93003.21
2022-12-11T00:27:47.728Z,93002.42
2022-12-11T00:30:14.664Z,92993.91
2022-12-11T00:32:42.534Z,92989.52
2022-12-11T00:35:09.897Z,92987.63
2022-12-11T00:37:36.935Z,92977.70
2022-12-11T00:40:04.088Z,92975.59
2022-12-11T00:42:30.827Z,92981.27
2022-12-11T00:44:57.537Z,92975.77
2022-12-11T00:47:24.594Z,92969.88
2022-12-11T00:49:51.630Z,92965.66
2022-12-11T00:52:18.361Z,92964.00
2022-12-11T00:54:45.047Z,92953.50
2022-12-11T00:57:11.795Z,92954.70
2022-12-11T00:59:38.653Z,92949.20
2022-12-11T01:02:05.385Z,92940.02
2022-12-11T01:04:35.907Z,92939.83
2022-12-11T01:07:02.810Z,92936.88
2022-12-11T01:09:48.337Z,92930.83
2022-12-11T01:12:15.076Z,92931.97
2022-12-11T01:14:41.829Z,92928.14
2022-12-11T01:17:08.542Z,92931.23
2022-12-11T01:19:35.253Z,92929.55
2022-12-11T01:22:02.414Z,92927.10
2022-12-11T01:24:29.086Z,92925.83
2022-12-11T01:26:55.856Z,92926.70
2022-12-11T01:29:22.538Z,92928.65
2022-12-11T01:31:49.228Z,92927.95
2022-12-11T01:34:15.909Z,92928.92
2022-12-11T01:36:43.255Z,92925.31
2022-12-11T01:39:09.963Z,92921.98
2022-12-11T01:41:36.684Z,92924.02
2022-12-11T01:44:07.764Z,92919.88
2022-12-11T01:46:36.070Z,92919.09
2022-12-11T01:49:07.352Z,92908.42
2022-12-11T01:51:41.204Z,92896.70
2022-12-11T01:54:13.021Z,92893.75
2022-12-11T01:56:43.185Z,92891.98
2022-12-11T01:59:10.572Z,92882.69
2022-12-11T02:01:46.508Z,92878.31
2022-12-11T02:04:15.654Z,92878.48
2022-12-11T02:06:46.336Z,92879.61
2022-12-11T02:09:19.775Z,92872.16
2022-12-11T02:12:01.516Z,92874.05
2022-12-11T02:14:39.366Z,92872.64
2022-12-11T02:17:32.333Z,92872.92
2022-12-11T02:20:16.281Z,92874.25
2022-12-11T02:22:42.964Z,92873.70
2022-12-11T02:25:12.756Z,92865.94
2022-12-11T02:27:49.733Z,92860.09
2022-12-11T02:30:17.132Z,92858.45
2022-12-11T02:32:52.504Z,92859.06
2022-12-11T02:35:23.396Z,92855.33
2022-12-11T02:38:00.077Z,92848.44
2022-12-11T02:40:31.339Z,92846.14
2022-12-11T02:43:02.563Z,92841.97
2022-12-11T02:45:30.518Z,92842.05
2022-12-11T02:48:00.456Z,92841.62
2022-12-11T02:50:28.445Z,92845.17
2022-12-11T02:52:57.071Z,92843.27
2022-12-11T02:55:26.661Z,92837.87
2022-12-11T02:58:12.371Z,92839.59
2022-12-11T03:00:39.423Z,92836.15
2022-12-11T03:03:06.437Z,92839.27
2022-12-11T03:05:33.369Z,92839.60
2022-12-11T03:08:02.047Z,92838.78
2022-12-11T03:10:28.834Z,92833.26
2022-12-11T03:12:57.940Z,92824.44
2022-12-11T03:15:43.862Z,92830.50
2022-12-11T03:18:18.560Z,92828.80
2022-12-11T03:20:50.384Z,92831.98
2022-12-11T03:23:26.320Z,92824.14
2022-12-11T03:25:54.390Z,92819.01
2022-12-11T03:28:25.459Z,92812.63
2022-12-11T03:30:53.696Z,92816.89
2022-12-11T03:33:28.979Z,92810.77
2022-12-11T03:36:04.581Z,92800.17
2022-12-11T03:38:38.597Z,92798.14
2022-12-11T03:41:07.879Z,92790.36
2022-12-11T03:43:35.720Z,92784.02
2022-12-11T03:46:03.166Z,92778.67
2022-12-11T03:48:37.495Z,92774.50
2022-12-11T03:51:07.081Z,92761.31
2022-12-11T03:53:36.682Z,92755.66
2022-12-11T03:56:09.224Z,92741.78
2022-12-11T03:58:36.241Z,92740.96
2022-12-11T04:01:02.945Z,92740.80
2022-12-11T04:03:29.693Z,92740.74
2022-12-11T04:05:56.501Z,92737.27
2022-12-11T04:08:23.664Z,92740.73
2022-12-11T04:11:09.721Z,92742.05
2022-12-11T04:13:37.390Z,92743.34
2022-12-11T04:16:04.326Z,92746.63
2022-12-11T04:18:49.916Z,92744.36
2022-12-11T04:21:39.441Z,92736.70
2022-12-11T04:24:16.172Z,92734.33
2022-12-11T04:26:45.019Z,92732.96
2022-12-11T04:29:12.682Z,92730.31
2022-12-11T04:31:39.563Z,92729.14
2022-12-11T04:34:06.511Z,92734.91
2022-12-11T04:36:33.301Z,92740.38
2022-12-11T04:39:00.161Z,92735.66
2022-12-11T04:41:27.042Z,92738.88
2022-12-11T04:43:53.900Z,92736.74
2022-12-11T04:46:22.652Z,92736.52
2022-12-11T04:48:56.755Z,92731.86
2022-12-11T04:51:24.547Z,92731.77
2022-12-11T04:53:51.331Z,92728.95
2022-12-11T04:56:18.174Z,92730.40
2022-12-11T04:58:46.001Z,92735.92
2022-12-11T05:01:18.888Z,92731.54
2022-12-11T05:03:46.573Z,92728.48
2022-12-11T05:06:14.003Z,92730.27
2022-12-11T05:08:42.795Z,92734.56
2022-12-11T05:11:12.244Z,92733.73
2022-12-11T05:13:39.494Z,92733.34
2022-12-11T05:16:08.797Z,92734.15
2022-12-11T05:18:35.847Z,92748.79
2022-12-11T05:21:10.349Z,92752.44
2022-12-11T05:23:37.921Z,92756.08
2022-12-11T05:26:07.704Z,92761.83
2022-12-11T05:28:36.893Z,92761.56
2022-12-11T05:31:16.776Z,92768.27
2022-12-11T05:33:44.857Z,92768.86
2022-12-11T05:36:21.226Z,92749.66
2022-12-11T05:38:48.418Z,92756.94
2022-12-11T05:41:18.203Z,92756.55
2022-12-11T05:43:45.347Z,92771.89
2022-12-11T05:46:13.672Z,92768.25
2022-12-11T05:48:41.906Z,92749.06
2022-12-11T05:51:09.609Z,92757.27
2022-12-11T05:53:37.672Z,92753.31
2022-12-11T05:56:10.908Z,92740.81
2022-12-11T05:58:38.889Z,92742.71
2022-12-11T06:01:26.930Z,92741.70
2022-12-11T06:03:54.941Z,92747.92
2022-12-11T06:06:22.808Z,92758.52
2022-12-11T06:08:53.853Z,92767.85
2022-12-11T06:11:24.132Z,92779.34
2022-12-11T06:13:52.451Z,92781.38
2022-12-11T06:16:19.907Z,92784.09
2022-12-11T06:18:47.254Z,92784.66
2022-12-11T06:21:18.069Z,92792.05
2022-12-11T06:23:46.753Z,92795.98
2022-12-11T06:26:14.606Z,92797.00
2022-12-11T06:28:41.390Z,92801.86
2022-12-11T06:31:08.249Z,92804.75
2022-12-11T06:33:35.993Z,92805.78
2022-12-11T06:36:05.189Z,92800.33
2022-12-11T06:38:32.005Z,92798.46
2022-12-11T06:41:00.395Z,92801.02
2022-12-11T06:43:27.041Z,92798.02
2022-12-11T06:45:56.836Z,92807.38
2022-12-11T06:48:26.212Z,92806.86
2022-12-11T06:50:53.034Z,92815.84
2022-12-11T06:53:19.820Z,92814.02
2022-12-11T06:55:46.705Z,92821.08
2022-12-11T06:58:13.437Z,92823.80
2022-12-11T07:00:40.189Z,92823.13
2022-12-11T07:03:07.085Z,92819.83
2022-12-11T07:05:33.798Z,92820.55
2022-12-11T07:08:01.029Z,92823.30
2022-12-11T07:10:28.102Z,92828.59
2022-12-11T07:12:55.143Z,92842.33
2022-12-11T07:15:21.954Z,92851.91
2022-12-11T07:17:48.679Z,92856.76
2022-12-11T07:20:16.675Z,92854.56
2022-12-11T07:22:46.588Z,92856.95
2022-12-11T07:25:14.354Z,92860.52
2022-12-11T07:27:41.260Z,92863.91
2022-12-11T07:30:10.402Z,92867.86
2022-12-11T07:32:37.819Z,92876.39
2022-12-11T07:35:05.005Z,92890.63
2022-12-11T07:37:31.705Z,92904.23
2022-12-11T07:39:58.461Z,92915.70
2022-12-11T07:42:25.253Z,92923.52
2022-12-11T07:44:51.926Z,92932.16
2022-12-11T07:47:18.736Z,92931.48
2022-12-11T07:49:45.549Z,92930.23
2022-12-11T07:52:12.242Z,92938.07
2022-12-11T07:54:39.178Z,92931.13
2022-12-11T07:57:08.156Z,92936.36
2022-12-11T07:59:39.215Z,92934.84
2022-12-11T08:02:06.347Z,92939.10
2022-12-11T08:04:32.997Z,92942.15
2022-12-11T08:06:59.673Z,92941.66
2022-12-11T08:09:26.499Z,92956.70
2022-12-11T08:11:53.268Z,92974.41
2022-12-11T08:14:20.549Z,92981.80
2022-12-11T08:16:48.528Z,93009.75
2022-12-11T08:19:15.680Z,93015.32
2022-12-11T08:21:42.976Z,93027.89
2022-12-11T08:24:09.976Z,93033.50
2022-12-11T08:26:36.897Z,93050.44
2022-12-11T08:29:03.797Z,93064.83
2022-12-11T08:31:32.781Z,93076.27
2022-12-11T08:33:59.762Z,93091.68
2022-12-11T08:36:26.826Z,93112.21
2022-12-11T08:38:55.786Z,93110.27
2022-12-11T08:41:27.788Z,93105.38
2022-12-11T08:43:57.025Z,93117.80
2022-12-11T08:46:26.868Z,93136.42
2022-12-11T08:48:54.806Z,93146.98
2022-12-11T08:51:25.441Z,93150.63
2022-12-11T08:53:55.571Z,93155.53
2022-12-11T08:56:23.252Z,93153.08
2022-12-11T08:58:51.037Z,93158.21
2022-12-11T09:01:25.987Z,93165.89
2022-12-11T09:03:54.339Z,93172.11
2022-12-11T09:06:23.427Z,93180.33
2022-12-11T09:08:53.095Z,93184.15
2022-12-11T09:11:23.400Z,93198.83
2022-12-11T09:13:50.308Z,93204.61
2022-12-11T09:16:19.660Z,93207.14
2022-12-11T09:18:48.262Z,93210.34
2022-12-11T09:21:18.332Z,93210.38
2022-12-11T09:23:45.318Z,93215.56
2022-12-11T09:26:14.599Z,93215.91
2022-12-11T09:28:46.206Z,93216.43
2022-12-11T09:31:17.508Z,93219.48
2022-12-11T09:33:45.255Z,93221.32
2022-12-11T09:36:13.560Z,93212.45
2022-12-11T09:38:43.399Z,93202.01
2022-12-11T09:41:29.034Z,93194.23
2022-12-11T09:44:15.325Z,93190.68
2022-12-11T09:46:43.743Z,93190.70
2022-12-11T09:49:24.272Z,93193.10
2022-12-11T09:52:06.952Z,93191.71
2022-12-11T09:54:34.917Z,93198.71
2022-12-11T09:57:40.824Z,93202.18
2022-12-11T10:00:24.151Z,93220.09
2022-12-11T10:03:00.611Z,93239.63
2022-12-11T10:05:50.569Z,93258.65
2022-12-11T10:08:36.936Z,93263.42
2022-12-11T10:11:42.095Z,93274.05
2022-12-11T10:14:44.651Z,93284.25
2022-12-11T10:17:31.958Z,93287.76
2022-12-11T10:20:09.397Z,93293.30
2022-12-11T10:22:36.699Z,93288.23
2022-12-11T10:25:11.097Z,93295.14
2022-12-11T10:27:41.016Z,93297.99
2022-12-11T10:30:17.406Z,93280.77
2022-12-11T10:32:51.985Z,93282.34
2022-12-11T10:35:38.954Z,93284.70
2022-12-11T10:38:12.140Z,93293.84
2022-12-11T10:40:44.706Z,93312.39
2022-12-11T10:43:12.198Z,93301.52
2022-12-11T10:45:39.973Z,93312.04
2022-12-11T10:48:12.099Z,93319.11
2022-12-11T10:50:39.594Z,93308.90
2022-12-11T10:53:20.677Z,93309.74
2022-12-11T10:55:48.786Z,93327.86
2022-12-11T10:58:20.191Z,93328.40
2022-12-11T11:01:02.248Z,93334.80
2022-12-11T11:03:32.674Z,93343.57
2022-12-11T11:06:15.827Z,93348.58
2022-12-11T11:08:52.459Z,93354.10
2022-12-11T11:11:36.365Z,93362.64
2022-12-11T11:14:20.387Z,93359.66
2022-12-11T11:16:50.599Z,93354.61
2022-12-11T11:19:22.277Z,93348.38
2022-12-11T11:22:05.527Z,93349.28
2022-12-11T11:24:41.106Z,93345.05
2022-12-11T11:27:19.806Z,93344.02
2022-12-11T11:29:52.809Z,93340.29
2022-12-11T11:32:24.099Z,93341.13
2022-12-11T11:34:51.454Z,93345.48
2022-12-11T11:37:32.750Z,93353.48
2022-12-11T11:40:29.797Z,93362.99
2022-12-11T11:43:10.622Z,93370.06
2022-12-11T11:45:49.498Z,93375.96
2022-12-11T11:48:28.422Z,93375.41
2022-12-11T11:50:57.475Z,93378.63
2022-12-11T11:53:40.025Z,93382.34
2022-12-11T11:56:28.272Z,93387.67
2022-12-11T11:59:05.092Z,93393.91
2022-12-11T12:01:33.263Z,93396.44
2022-12-11T12:04:03.420Z,93405.60
2022-12-11T12:07:10.862Z,93420.94
2022-12-11T12:09:59.128Z,93422.73
2022-12-11T12:12:44.034Z,93422.72
2022-12-11T12:15:13.966Z,93422.70
2022-12-11T12:18:24.563Z,93415.27
2022-12-11T12:21:16.773Z,93413.48
2022-12-11T12:23:59.079Z,93399.51
2022-12-11T12:26:36.368Z,93404.25
2022-12-11T12:29:40.927Z,93415.03
2022-12-11T12:32:27.818Z,93418.77
2022-12-11T12:35:30.253Z,93431.58
2022-12-11T12:38:19.004Z,93432.90
2022-12-11T12:41:02.966Z,93429.02
2022-12-11T12:43:42.673Z,93423.96
2022-12-11T12:46:37.456Z,93438.58
2022-12-11T12:49:13.260Z,93447.35
2022-12-11T12:51:41.145Z,93450.01
2022-12-11T12:54:16.055Z,93445.61
2022-12-11T12:56:46.607Z,93451.20
2022-12-11T12:59:23.133Z,93456.91
2022-12-11T13:02:00.555Z,93468.39
2022-12-11T13:04:57.872Z,93474.16
2022-12-11T13:07:32.160Z,93485.73
2022-12-11T13:10:31.585Z,93485.35
2022-12-11T13:13:00.174Z,93490.61
2022-12-11T13:15:32.020Z,93504.63
2022-12-11T13:18:00.746Z,93507.56
2022-12-11T13:20:31.614Z,93509.44
2022-12-11T13:23:18.232Z,93496.02
2022-12-11T13:25:59.617Z,93503.83
2022-12-11T13:28:38.697Z,93514.50
2022-12-11T13:31:07.527Z,93511.02
2022-12-11T13:33:49.425Z,93512.78
2022-12-11T13:36:24.409Z,93510.27
2022-12-11T13:38:56.244Z,93510.45
2022-12-11T13:41:23.468Z,93507.99
2022-12-11T13:43:51.650Z,93509.89
2022-12-11T13:46:29.983Z,93521.20
2022-12-11T13:49:03.294Z,93528.95
2022-12-11T13:51:34.717Z,93530.94
2022-12-11T13:54:17.686Z,93534.54
2022-12-11T13:56:53.635Z,93540.10
2022-12-11T13:59:34.527Z,93534.48
2022-12-11T14:02:22.721Z,93542.27
2022-12-11T14:04:53.969Z,93551.48
2022-12-11T14:07:37.499Z,93558.98
2022-12-11T14:10:15.918Z,93563.89
2022-12-11T14:12:55.379Z,93562.11
2022-12-11T14:15:22.938Z,93563.87
2022-12-11T14:17:51.942Z,93568.77
2022-12-11T14:20:25.027Z,93579.76
2022-12-11T14:22:51.774Z,93575.66
2022-12-11T14:25:25.195Z,93580.41
2022-12-11T14:27:56.443Z,93595.30
2022-12-11T14:30:26.704Z,93593.21
2022-12-11T14:32:58.048Z,93596.48
2022-12-11T14:35:38.886Z,93590.34
2022-12-11T14:38:16.233Z,93596.63
2022-12-11T14:40:46.551Z,93593.30
2022-12-11T14:43:28.411Z,93596.20
2022-12-11T14:46:00.840Z,93598.17
2022-12-11T14:48:35.610Z,93600.50
2022-12-11T14:51:06.899Z,93607.34
2022-12-11T14:53:44.514Z,93609.85
2022-12-11T14:56:18.812Z,93615.55
2022-12-11T14:59:14.686Z,93620.86
2022-12-11T15:01:41.449Z,93622.69
2022-12-11T15:04:14.173Z,93623.05
2022-12-11T15:06:46.177Z,93618.45
2022-12-11T15:09:25.076Z,93622.13
2022-12-11T15:11:54.606Z,93630.41
2022-12-11T15:14:23.565Z,93641.27
2022-12-11T15:16:53.275Z,93648.83
2022-12-11T15:19:29.882Z,93647.89
2022-12-11T15:22:09.063Z,93650.40
2022-12-11T15:24:37.853Z,93654.27
2022-12-11T15:27:05.948Z,93661.73
2022-12-11T15:29:35.862Z,93667.91
2022-12-11T15:32:08.954Z,93670.83
2022-12-11T15:34:44.425Z,93669.59
2022-12-11T15:37:24.876Z,93668.08
2022-12-11T15:39:53.095Z,93669.60
2022-12-11T15:42:25.563Z,93665.09
2022-12-11T15:44:54.910Z,93664.06
2022-12-11T15:47:27.928Z,93667.98
2022-12-11T15:49:58.287Z,93670.67
2022-12-11T15:52:25.292Z,93677.98
2022-12-11T15:54:51.950Z,93687.70
2022-12-11T15:57:23.776Z,93689.13
2022-12-11T15:59:53.579Z,93685.11
2022-12-11T16:02:21.001Z,93685.41
2022-12-11T16:04:47.783Z,93682.36
2022-12-11T16:07:23.211Z,93685.73
2022-12-11T16:09:50.604Z,93687.90
2022-12-11T16:12:17.835Z,93686.65
2022-12-11T16:14:45.497Z,93691.69
2022-12-11T16:17:14.550Z,93696.27
2022-12-11T16:19:42.826Z,93699.02
2022-12-11T16:22:11.577Z,93690.75
2022-12-11T16:24:39.670Z,93692.70
2022-12-11T16:27:09.049Z,93700.73
2022-12-11T16:29:38.209Z,93707.94
2022-12-11T16:32:07.724Z,93706.65
2022-12-11T16:34:36.910Z,93701.31
2022-12-11T16:37:05.697Z,93699.02
2022-12-11T16:39:32.469Z,93693.58
2022-12-11T16:41:59.444Z,93696.10
2022-12-11T16:44:26.819Z,93697.30
2022-12-11T16:46:53.783Z,93699.46
2022-12-11T16:49:21.954Z,93700.13
2022-12-11T16:51:49.105Z,93702.71
2022-12-11T16:54:16.825Z,93706.99
2022-12-11T16:56:44.233Z,93711.95
2022-12-11T16:59:12.320Z,93714.97
2022-12-11T17:01:39.366Z,93718.21
2022-12-11T17:04:06.595Z,93708.96
2022-12-11T17:06:33.501Z,93706.72
2022-12-11T17:09:00.566Z,93716.81
2022-12-11T17:11:27.642Z,93720.70
2022-12-11T17:13:56.257Z,93730.41
2022-12-11T17:16:25.565Z,93738.88
2022-12-11T17:18:52.963Z,93735.03
2022-12-11T17:21:21.658Z,93725.93
2022-12-11T17:23:49.990Z,93732.13
2022-12-11T17:26:17.746Z,93739.96
2022-12-11T17:28:45.307Z,93733.23
2022-12-11T17:31:16.473Z,93748.95
2022-12-11T17:33:44.604Z,93750.59
2022-12-11T17:36:19.259Z,93756.44
2022-12-11T17:38:46.629Z,93755.84
2022-12-11T17:41:20.313Z,93758.71
2022-12-11T17:43:51.438Z,93759.84
2022-12-11T17:46:20.092Z,93765.48
2022-12-11T17:48:47.913Z,93765.95
2022-12-11T17:51:21.285Z,93760.81
2022-12-11T17:53:48.080Z,93761.98
2022-12-11T17:56:15.897Z,93761.77
2022-12-11T17:58:43.094Z,93765.35
2022-12-11T18:01:12.546Z,93767.10
2022-12-11T18:03:40.431Z,93775.75
2022-12-11T18:06:13.100Z,93784.30
2022-12-11T18:08:41.219Z,93786.35
2022-12-11T18:11:10.937Z,93789.95
2022-12-11T18:13:38.201Z,93789.05
2022-12-11T18:16:16.139Z,93794.43
2022-12-11T18:18:45.306Z,93800.88
2022-12-11T18:21:13.862Z,93807.70
2022-12-11T18:23:40.759Z,93814.50
2022-12-11T18:26:07.500Z,93810.92
2022-12-11T18:28:34.291Z,93807.16
2022-12-11T18:31:02.048Z,93815.33
2022-12-11T18:33:29.870Z,93814.46
2022-12-11T18:35:56.634Z,93819.41
2022-12-11T18:38:23.401Z,93821.09
2022-12-11T18:40:50.457Z,93821.37
2022-12-11T18:43:17.661Z,93816.70
2022-12-11T18:45:45.004Z,93817.87
2022-12-11T18:48:13.561Z,93827.06
2022-12-11T18:50:48.129Z,93834.54
2022-12-11T18:53:16.191Z,93837.27
2022-12-11T18:55:45.096Z,93840.08
2022-12-11T18:58:13.612Z,93836.48
2022-12-11T19:00:41.917Z,93837.10
2022-12-11T19:03:10.232Z,93842.59
2022-12-11T19:05:41.754Z,93843.64
2022-12-11T19:08:11.918Z,93841.31
2022-12-11T19:10:45.010Z,93837.64
2022-12-11T19:13:12.659Z,93834.95
2022-12-11T19:15:43.498Z,93842.30
2022-12-11T19:18:10.416Z,93849.94
2022-12-11T19:21:03.095Z,93857.98
2022-12-11T19:23:25.560Z,93868.15
2022-12-11T19:25:52.321Z,93868.25
2022-12-11T19:28:19.077Z,93875.52
2022-12-11T19:30:48.320Z,93882.57
2022-12-11T19:33:16.220Z,93883.02
2022-12-11T19:35:43.306Z,93877.81
2022-12-11T19:38:12.087Z,93878.44
2022-12-11T19:40:41.237Z,93882.85
2022-12-11T19:43:08.533Z,93890.09
2022-12-11T19:45:35.831Z,93892.52
2022-12-11T19:48:02.943Z,93892.32
2022-12-11T19:50:29.695Z,93891.38
2022-12-11T19:52:56.506Z,93889.05
2022-12-11T19:55:23.271Z,93891.10
2022-12-11T19:57:50.046Z,93890.33
2022-12-11T20:00:18.247Z,93891.80
2022-12-11T20:02:45.105Z,93885.23
2022-12-11T20:05:12.397Z,93885.06
2022-12-11T20:07:39.553Z,93888.04
2022-12-11T20:10:06.648Z,93891.65
2022-12-11T20:12:34.032Z,93893.04
2022-12-11T20:15:00.901Z,93890.48
2022-12-11T20:17:27.668Z,93892.46
2022-12-11T20:19:54.445Z,93899.11
2022-12-11T20:22:21.721Z,93898.31
2022-12-11T20:24:48.367Z,93902.53
2022-12-11T20:27:15.083Z,93900.70
2022-12-11T20:29:41.955Z,93900.42
2022-12-11T20:32:10.740Z,93897.59
2022-12-11T20:34:37.887Z,93896.14
2022-12-11T20:37:04.637Z,93900.55
2022-12-11T20:39:31.396Z,93901.60
2022-12-11T20:41:58.119Z,93902.44
2022-12-11T20:44:25.268Z,93902.74
2022-12-11T20:46:52.217Z,93903.62
2022-12-11T20:49:19.208Z,93900.77
2022-12-11T20:51:46.339Z,93899.13
2022-12-11T20:54:13.297Z,93898.74
2022-12-11T20:56:39.967Z,93897.02
2022-12-11T20:59:06.865Z,93909.48
2022-12-11T21:01:34.419Z,93917.88
2022-12-11T21:04:01.462Z,93915.55
2022-12-11T21:06:34.611Z,93913.90
2022-12-11T21:09:07.233Z,93910.77
2022-12-11T21:11:34.581Z,93914.94
2022-12-11T21:14:01.444Z,93915.48
2022-12-11T21:16:28.326Z,93915.60
2022-12-11T21:18:56.861Z,93915.23
2022-12-11T21:21:24.331Z,93920.83
2022-12-11T21:23:51.253Z,93924.23
2022-12-11T21:26:18.440Z,93920.17
2022-12-11T21:28:45.281Z,93923.87
2022-12-11T21:31:15.392Z,93926.56
2022-12-11T21:33:42.240Z,93922.41
2022-12-11T21:36:10.771Z,93925.15
2022-12-11T21:38:38.971Z,93924.83
2022-12-11T21:41:13.043Z,93924.64
2022-12-11T21:44:03.241Z,93928.56
2022-12-11T21:46:28.059Z,93927.24
2022-12-11T21:48:55.322Z,93925.61
2022-12-11T21:51:34.071Z,93923.56
2022-12-11T21:54:04.724Z,93927.47
2022-12-11T21:56:32.189Z,93923.20
2022-12-11T21:59:00.712Z,93927.98
2022-12-11T22:01:34.709Z,93924.40
2022-12-11T22:04:02.614Z,93926.46
2022-12-11T22:06:29.353Z,93927.39
2022-12-11T22:08:56.599Z,93920.36
2022-12-11T22:11:29.032Z,93924.06
2022-12-11T22:13:56.732Z,93927.02
2022-12-11T22:16:23.862Z,93925.87
2022-12-11T22:18:50.942Z,93925.16
2022-12-11T22:21:18.205Z,93926.88
2022-12-11T22:23:45.566Z,93928.96
2022-12-11T22:26:17.878Z,93927.88
2022-12-11T22:28:44.630Z,93931.59
2022-12-11T22:31:13.499Z,93930.53
2022-12-11T22:33:40.717Z,93931.13
2022-12-11T22:36:07.988Z,93932.27
2022-12-11T22:38:34.882Z,93934.82
2022-12-11T22:41:09.211Z,93934.00
2022-12-11T22:43:36.126Z,93938.27
2022-12-11T22:46:02.970Z,93926.60
2022-12-11T22:48:30.542Z,93925.06
2022-12-11T22:50:57.410Z,93925.91
2022-12-11T22:53:24.124Z,93934.05
2022-12-11T22:55:50.877Z,93934.19
2022-12-11T22:58:21.792Z,93933.45
2022-12-11T23:00:48.882Z,93935.68
2022-12-11T23:03:15.977Z,93939.38
2022-12-11T23:05:42.890Z,93940.39
2022-12-11T23:08:09.873Z,93944.64
2022-12-11T23:10:40.321Z,93948.30
2022-12-11T23:13:07.235Z,93952.34
2022-12-11T23:15:35.101Z,93953.31
2022-12-11T23:18:02.088Z,93958.33
2022-12-11T23:20:28.933Z,93960.91
2022-12-11T23:22:55.814Z,93967.71
2022-12-11T23:25:22.473Z,93969.05
2022-12-11T23:27:49.283Z,93968.56
2022-12-11T23:30:16.175Z,93970.33
2022-12-11T23:32:42.962Z,93974.32
2022-12-11T23:35:10.212Z,93976.53
2022-12-11T23:37:37.383Z,93976.88
2022-12-11T23:40:05.168Z,93978.70
2022-12-11T23:42:34.014Z,93981.09
2022-12-11T23:45:00.884Z,93975.65
2022-12-11T23:47:27.708Z,93981.38
2022-12-11T23:49:54.432Z,93985.27
2022-12-11T23:52:22.018Z,93985.66
2022-12-11T23:54:51.227Z,93992.91
2022-12-11T23:57:17.990Z,93997.44
2022-12-11T23:59:44.825Z,93998.14
